Weather at RAF Ayios Nikolaos Air Base [CLOSED]

Public forecast

Using degrees Celsius for public forecast. Weather courtesy of forecast.io.

Closest aviation weather report (METAR) to RAF Ayios Nikolaos Air Base

Closest report is Larnaca International Airport, 18.4 nm (34.1 km) SW.

2024/07/14 18:00 (retrieved 12 minutes ago)

LCLK 141800Z 22014KT CAVOK 28/25 Q1001 NOSIG

Closest aviation forecast (TAF) to RAF Ayios Nikolaos Air Base

Closest forecast is Larnaca International Airport, 18.4 nm (34.1 km) SW.

2024/07/14 18:33 (retrieved 0 seconds ago)

TAF TAF LCLK 141730Z 1418/1518 24007KT 9999 FEW030 BECMG 1508/1510 20018KT BECMG 1516/1518 24006KT